Check out our new BloomSky Weather System.

Active alerts

Houston, TX
  Details for Houston, TX Dense Fog Advisory


Thunder radar  blitzortung!


Rain radar more information rain snow radar


Visit our other weather sites:

Template documentation
and downloads

And another site



Weather Underground History page Text

Daily Summary for March 28, 2017 Units:  Metric    English   Both
« Previous Day
Next Day »
Daily Weekly Monthly Yearly Custom
  High: Low: Average:
Temperature: 29.4 °C 21 °C 24.7 °C
Dew Point: 22.7 °C 19.7 °C 21.3 °C
Humidity: 98 % 58 % 83 %
Wind Speed: 40.2 km/h 0 km/h 8.7 km/h
Wind Gust: 40.2 km/h - -
Wind:- - SE
Pressure: 1011.7 hPa 1006.7 hPa -
Precipitation: 0 mm    
Historical Graphs
 
 
Tabular Data for March 28, 2017
Time Temperature Dew Point Pressure Wind Wind Speed Wind Gust Humidity Rainfall Rate (Hourly)
00:02 22.3 °C 20.9 °C 1011.1 hPa SSE 3.2 km/h 8 km/h 92 % 0 mm
00:07 22.2 °C 20.8 °C 1011.4 hPa Calm   6.4 km/h 92 % 0 mm
00:12 22.2 °C 21 °C 1011.4 hPa SE 4.8 km/h 4.8 km/h 93 % 0 mm
00:13 22.2 °C 21 °C 1011.4 hPa SE 3.2 km/h 4.8 km/h 93 % 0 mm
00:18 22.2 °C 21 °C 1011.4 hPa Calm   4.8 km/h 93 % 0 mm
00:23 22.1 °C 20.9 °C 1011.4 hPa Calm   4.8 km/h 93 % 0 mm
00:28 22.1 °C 21.1 °C 1011.4 hPa Calm   4.8 km/h 94 % 0 mm
00:33 22.1 °C 21.1 °C 1011.1 hPa SSE 1.6 km/h 6.4 km/h 94 % 0 mm
00:38 22.1 °C 21.1 °C 1011.1 hPa ESE 6.4 km/h 6.4 km/h 94 % 0 mm
00:43 22.2 °C 21.2 °C 1011.1 hPa SE 4.8 km/h 6.4 km/h 94 % 0 mm
00:48 22.2 °C 21.2 °C 1011.1 hPa ESE 4.8 km/h 6.4 km/h 94 % 0 mm
00:53 22.3 °C 21.3 °C 1011.1 hPa SE 3.2 km/h 8 km/h 94 % 0 mm
00:58 22.2 °C 21.2 °C 1011.1 hPa SE 3.2 km/h 8 km/h 94 % 0 mm
01:03 22.2 °C 21.2 °C 1011.1 hPa East 4.8 km/h 8 km/h 94 % 0 mm
01:08 22.2 °C 21.2 °C 1011.1 hPa ESE 4.8 km/h 8 km/h 94 % 0 mm
01:13 22.1 °C 21.3 °C 1011.1 hPa SSE 1.6 km/h 8 km/h 95 % 0 mm
01:18 22.1 °C 21.3 °C 1011.1 hPa SE 3.2 km/h 8 km/h 95 % 0 mm
01:23 22.1 °C 21.3 °C 1011.1 hPa Calm   8 km/h 95 % 0 mm
01:28 22.1 °C 21.3 °C 1011.1 hPa ESE 3.2 km/h 3.2 km/h 95 % 0 mm
01:33 22.1 °C 21.3 °C 1011.1 hPa SSE 3.2 km/h 3.2 km/h 95 % 0 mm
01:38 22.1 °C 21.3 °C 1011.1 hPa Calm   3.2 km/h 95 % 0 mm
01:43 22.1 °C 21.3 °C 1011.1 hPa ESE 1.6 km/h 3.2 km/h 95 % 0 mm
01:48 22.1 °C 21.3 °C 1011.1 hPa Calm   4.8 km/h 95 % 0 mm
01:53 22.1 °C 21.3 °C 1011.1 hPa Calm   4.8 km/h 95 % 0 mm
01:58 22.1 °C 21.3 °C 1011.1 hPa NE 1.6 km/h 4.8 km/h 95 % 0 mm
02:03 22.1 °C 21.4 °C 1011.1 hPa SE 3.2 km/h 6.4 km/h 96 % 0 mm
02:08 22.1 °C 21.4 °C 1011.1 hPa ESE 1.6 km/h 6.4 km/h 96 % 0 mm
02:13 22.2 °C 21.5 °C 1011.1 hPa ESE 6.4 km/h 9.7 km/h 96 % 0 mm
02:18 22.3 °C 21.6 °C 1011.1 hPa SE 3.2 km/h 9.7 km/h 96 % 0 mm
02:23 22.4 °C 21.6 °C 1011.1 hPa SE 3.2 km/h 9.7 km/h 95 % 0 mm
02:28 22.4 °C 21.6 °C 1011.1 hPa SE 3.2 km/h 9.7 km/h 95 % 0 mm
02:33 22.4 °C 21.6 °C 1011.1 hPa ESE 3.2 km/h 9.7 km/h 95 % 0 mm
02:38 22.4 °C 21.6 °C 1011.1 hPa ESE 3.2 km/h 8 km/h 95 % 0 mm
02:43 22.4 °C 21.6 °C 1011.1 hPa SE 1.6 km/h 8 km/h 95 % 0 mm
02:48 22.3 °C 21.5 °C 1011.1 hPa ESE 3.2 km/h 8 km/h 95 % 0 mm
02:53 22.3 °C 21.5 °C 1010.7 hPa ESE 3.2 km/h 6.4 km/h 95 % 0 mm
02:58 22.2 °C 21.4 °C 1010.7 hPa ESE 1.6 km/h 6.4 km/h 95 % 0 mm
03:03 22.2 °C 21.4 °C 1010.7 hPa Calm   6.4 km/h 95 % 0 mm
03:08 22.1 °C 21.3 °C 1010.7 hPa Calm   6.4 km/h 95 % 0 mm
03:13 22 °C 21.2 °C 1010.7 hPa ESE 1.6 km/h 3.2 km/h 95 % 0 mm
03:18 21.9 °C 21.2 °C 1010.7 hPa Calm   3.2 km/h 96 % 0 mm
03:23 21.9 °C 21.2 °C 1010.7 hPa Calm   3.2 km/h 96 % 0 mm
03:28 21.8 °C 21.1 °C 1010.4 hPa Calm   3.2 km/h 96 % 0 mm
03:34 21.8 °C 21.1 °C 1010.4 hPa Calm   3.2 km/h 96 % 0 mm
03:38 21.8 °C 21.1 °C 1010.4 hPa ESE 1.6 km/h 3.2 km/h 96 % 0 mm
03:44 21.8 °C 21.1 °C 1010.4 hPa Calm   3.2 km/h 96 % 0 mm
03:49 21.8 °C 21.1 °C 1010.4 hPa ESE 1.6 km/h 3.2 km/h 96 % 0 mm
03:54 21.7 °C 21 °C 1010.4 hPa Calm   3.2 km/h 96 % 0 mm
03:59 21.7 °C 21 °C 1010 hPa Calm   3.2 km/h 96 % 0 mm
04:04 21.6 °C 20.9 °C 1010 hPa Calm   3.2 km/h 96 % 0 mm
04:09 21.5 °C 20.8 °C 1010 hPa Calm   1.6 km/h 96 % 0 mm
04:14 21.4 °C 20.7 °C 1010 hPa Calm   1.6 km/h 96 % 0 mm
04:19 21.3 °C 20.6 °C 1010.4 hPa Calm   1.6 km/h 96 % 0 mm
04:24 21.2 °C 20.5 °C 1010.4 hPa Calm   1.6 km/h 96 % 0 mm
04:29 21.2 °C 20.7 °C 1010.4 hPa Calm     97 % 0 mm
04:34 21.2 °C 20.7 °C 1010 hPa Calm     97 % 0 mm
04:39 21.2 °C 20.7 °C 1010 hPa Calm   1.6 km/h 97 % 0 mm
04:44 21.1 °C 20.6 °C 1010 hPa Calm   1.6 km/h 97 % 0 mm
04:49 21.1 °C 20.6 °C 1010 hPa Calm   1.6 km/h 97 % 0 mm
04:54 21.1 °C 20.6 °C 1010.4 hPa Calm   1.6 km/h 97 % 0 mm
04:59 21.1 °C 20.6 °C 1010.4 hPa Calm   1.6 km/h 97 % 0 mm
05:04 21.2 °C 20.7 °C 1010 hPa Calm   1.6 km/h 97 % 0 mm
05:09 21.2 °C 20.7 °C 1010 hPa Calm     97 % 0 mm
05:14 21.2 °C 20.7 °C 1010.4 hPa Calm   1.6 km/h 97 % 0 mm
05:19 21.2 °C 20.7 °C 1010.4 hPa Calm   1.6 km/h 97 % 0 mm
05:24 21.2 °C 20.7 °C 1010.4 hPa Calm   1.6 km/h 97 % 0 mm
05:29 21.2 °C 20.7 °C 1010.4 hPa Calm   1.6 km/h 97 % 0 mm
05:34 21.2 °C 20.7 °C 1010 hPa Calm   1.6 km/h 97 % 0 mm
05:39 21.2 °C 20.7 °C 1010 hPa Calm   1.6 km/h 97 % 0 mm
05:44 21.2 °C 20.7 °C 1010 hPa Calm   1.6 km/h 97 % 0 mm
05:49 21.1 °C 20.6 °C 1010 hPa Calm   1.6 km/h 97 % 0 mm
05:54 21.1 °C 20.6 °C 1010 hPa Calm   1.6 km/h 97 % 0 mm
05:59 21.1 °C 20.6 °C 1010 hPa Calm   1.6 km/h 97 % 0 mm
06:04 21 °C 20.5 °C 1010 hPa Calm   1.6 km/h 97 % 0 mm
06:09 21 °C 20.5 °C 1010.4 hPa Calm   1.6 km/h 97 % 0 mm
06:15 21 °C 20.7 °C 1010.4 hPa Calm   1.6 km/h 98 % 0 mm
06:20 21.1 °C 20.8 °C 1010.4 hPa Calm   1.6 km/h 98 % 0 mm
06:25 21.2 °C 20.9 °C 1010.4 hPa Calm   1.6 km/h 98 % 0 mm
06:30 21.2 °C 20.9 °C 1010.4 hPa Calm   1.6 km/h 98 % 0 mm
06:35 21.3 °C 21 °C 1010.4 hPa Calm   1.6 km/h 98 % 0 mm
06:40 21.4 °C 21.1 °C 1010.4 hPa Calm   1.6 km/h 98 % 0 mm
06:45 21.4 °C 21.1 °C 1010.7 hPa Calm   1.6 km/h 98 % 0 mm
06:50 21.5 °C 21.2 °C 1010.4 hPa Calm   1.6 km/h 98 % 0 mm
06:55 21.6 °C 21.3 °C 1010.7 hPa Calm   3.2 km/h 98 % 0 mm
07:00 21.6 °C 21.3 °C 1010.4 hPa Calm   3.2 km/h 98 % 0 mm
07:05 21.6 °C 21.3 °C 1010.7 hPa Calm   3.2 km/h 98 % 0 mm
07:10 21.6 °C 21.3 °C 1010.4 hPa Calm   1.6 km/h 98 % 0 mm
07:15 21.6 °C 21.3 °C 1010.7 hPa Calm   1.6 km/h 98 % 0 mm
07:20 21.6 °C 21.3 °C 1010.7 hPa East 1.6 km/h 3.2 km/h 98 % 0 mm
07:25 21.6 °C 21.3 °C 1010.7 hPa Calm   3.2 km/h 98 % 0 mm
07:30 21.6 °C 21.3 °C 1010.7 hPa Calm   3.2 km/h 98 % 0 mm
07:35 21.6 °C 21.3 °C 1010.7 hPa Calm   1.6 km/h 98 % 0 mm
07:40 21.5 °C 21.2 °C 1010.7 hPa Calm   1.6 km/h 98 % 0 mm
07:45 21.5 °C 21.2 °C 1010.7 hPa Calm   1.6 km/h 98 % 0 mm
07:50 21.4 °C 21.1 °C 1010.7 hPa Calm   1.6 km/h 98 % 0 mm
07:55 21.5 °C 21.2 °C 1011.1 hPa Calm   1.6 km/h 98 % 0 mm
08:00 21.6 °C 21.3 °C 1011.1 hPa Calm   1.6 km/h 98 % 0 mm
08:05 21.6 °C 21.3 °C 1011.1 hPa Calm   3.2 km/h 98 % 0 mm
08:10 21.7 °C 21.4 °C 1011.1 hPa Calm   3.2 km/h 98 % 0 mm
08:15 21.8 °C 21.5 °C 1011.1 hPa ENE 1.6 km/h 3.2 km/h 98 % 0 mm
08:20 21.9 °C 21.6 °C 1011.1 hPa Calm   4.8 km/h 98 % 0 mm
08:22 21.9 °C 21.6 °C 1011.1 hPa Calm   4.8 km/h 98 % 0 mm
08:27 21.9 °C 21.6 °C 1011.1 hPa SSE 1.6 km/h 4.8 km/h 98 % 0 mm
08:32 22 °C 21.7 °C 1011.1 hPa ENE 3.2 km/h 4.8 km/h 98 % 0 mm
08:37 22.2 °C 21.9 °C 1011.1 hPa East 3.2 km/h 4.8 km/h 98 % 0 mm
08:42 22.4 °C 22.1 °C 1011.1 hPa ESE 1.6 km/h 8 km/h 98 % 0 mm
08:47 22.5 °C 22.2 °C 1011.1 hPa NE 3.2 km/h 9.7 km/h 98 % 0 mm
08:52 22.6 °C 22.3 °C 1011.1 hPa East 1.6 km/h 9.7 km/h 98 % 0 mm
08:57 22.7 °C 22.4 °C 1011.1 hPa East 1.6 km/h 9.7 km/h 98 % 0 mm
09:02 22.9 °C 22.4 °C 1011.1 hPa ENE 3.2 km/h 6.4 km/h 97 % 0 mm
09:07 23.1 °C 22.6 °C 1011.1 hPa East 4.8 km/h 11.3 km/h 97 % 0 mm
09:12 23.3 °C 22.6 °C 1011.1 hPa East 4.8 km/h 16.1 km/h 96 % 0 mm
09:17 23.5 °C 22.7 °C 1011.1 hPa ESE 6.4 km/h 16.1 km/h 95 % 0 mm
09:22 23.7 °C 22.5 °C 1011.1 hPa ESE 14.5 km/h 16.1 km/h 93 % 0 mm
09:27 23.7 °C 22.1 °C 1011.4 hPa SSW 9.7 km/h 17.7 km/h 91 % 0 mm
09:32 23.9 °C 22 °C 1011.4 hPa SSE 8 km/h 17.7 km/h 89 % 0 mm
09:37 24.1 °C 22.2 °C 1011.4 hPa ESE 8 km/h 17.7 km/h 89 % 0 mm
09:42 24.2 °C 22.1 °C 1011.4 hPa SSE 4.8 km/h 17.7 km/h 88 % 0 mm
09:47 24.4 °C 22.3 °C 1011.4 hPa SE 4.8 km/h 17.7 km/h 88 % 0 mm
09:52 24.4 °C 21.9 °C 1011.4 hPa ESE 6.4 km/h 14.5 km/h 86 % 0 mm
09:57 24.7 °C 22 °C 1011.7 hPa SE 6.4 km/h 14.5 km/h 85 % 0 mm
10:02 24.9 °C 22.2 °C 1011.7 hPa SE 9.7 km/h 14.5 km/h 85 % 0 mm
10:07 24.9 °C 21.8 °C 1011.4 hPa SSE 8 km/h 14.5 km/h 83 % 0 mm
10:12 24.9 °C 21.8 °C 1011.7 hPa SE 4.8 km/h 14.5 km/h 83 % 0 mm
10:17 25 °C 22.1 °C 1011.7 hPa ESE 9.7 km/h 14.5 km/h 84 % 0 mm
10:22 25.1 °C 21.8 °C 1011.7 hPa SSE 4.8 km/h 14.5 km/h 82 % 0 mm
10:27 25.3 °C 22 °C 1011.7 hPa SE 6.4 km/h 14.5 km/h 82 % 0 mm
10:32 25.7 °C 21.6 °C 1011.7 hPa SSE 4.8 km/h 17.7 km/h 78 % 0 mm
10:37 25.8 °C 21.7 °C 1011.7 hPa SE 12.9 km/h 17.7 km/h 78 % 0 mm
10:42 26.2 °C 21.8 °C 1011.7 hPa SE 12.9 km/h 17.7 km/h 77 % 0 mm
10:47 26.4 °C 21.4 °C 1011.7 hPa South 9.7 km/h 16.1 km/h 74 % 0 mm
10:52 26.6 °C 21.1 °C 1011.7 hPa ESE 11.3 km/h 16.1 km/h 72 % 0 mm
10:57 26.6 °C 21.1 °C 1011.7 hPa East 11.3 km/h 16.1 km/h 72 % 0 mm
11:02 26.8 °C 21.6 °C 1011.7 hPa SSE 11.3 km/h 22.5 km/h 73 % 0 mm
11:07 26.8 °C 21.1 °C 1011.7 hPa ESE 6.4 km/h 22.5 km/h 71 % 0 mm
11:12 26.9 °C 21.4 °C 1011.4 hPa East 8 km/h 22.5 km/h 72 % 0 mm
11:17 27 °C 21.3 °C 1011.4 hPa ESE 11.3 km/h 22.5 km/h 71 % 0 mm
11:22 27 °C 21.3 °C 1011.4 hPa ESE 17.7 km/h 19.3 km/h 71 % 0 mm
11:27 27.1 °C 20.9 °C 1011.4 hPa SE 14.5 km/h 22.5 km/h 69 % 0 mm
11:32 27.3 °C 20.9 °C 1011.4 hPa SSE 11.3 km/h 22.5 km/h 68 % 0 mm
11:37 27.4 °C 21.2 °C 1011.4 hPa SE 4.8 km/h 24.1 km/h 69 % 0 mm
11:43 27.7 °C 20.8 °C 1011.4 hPa ESE 9.7 km/h 24.1 km/h 66 % 0 mm
11:48 27.8 °C 21.1 °C 1011.4 hPa ESE 6.4 km/h 24.1 km/h 67 % 0 mm
11:53 27.8 °C 21.1 °C 1011.4 hPa SE 20.9 km/h 20.9 km/h 67 % 0 mm
11:58 27.7 °C 21 °C 1011.4 hPa SE 9.7 km/h 22.5 km/h 67 % 0 mm
12:03 27.9 °C 21 °C 1011.4 hPa ESE 19.3 km/h 22.5 km/h 66 % 0 mm
12:08 27.9 °C 21 °C 1011.1 hPa ESE 11.3 km/h 22.5 km/h 66 % 0 mm
12:13 28 °C 21.1 °C 1011.1 hPa SSE 8 km/h 22.5 km/h 66 % 0 mm
12:18 28.3 °C 20.3 °C 1011.1 hPa SSE 12.9 km/h 22.5 km/h 62 % 0 mm
12:23 28.3 °C 20.6 °C 1011.1 hPa SE 11.3 km/h 32.2 km/h 63 % 0 mm
12:28 28.5 °C 20.2 °C 1011.1 hPa SSE 16.1 km/h 32.2 km/h 61 % 0 mm
12:33 28.7 °C 21 °C 1011.1 hPa SSE 9.7 km/h 32.2 km/h 63 % 0 mm
12:38 28.6 °C 19.8 °C 1010.7 hPa ESE 19.3 km/h 29 km/h 59 % 0 mm
12:43 28.8 °C 20.3 °C 1010.7 hPa South 14.5 km/h 29 km/h 60 % 0 mm
12:48 28.8 °C 20.5 °C 1010.7 hPa South 12.9 km/h 30.6 km/h 61 % 0 mm
12:53 29.1 °C 20.5 °C 1010.7 hPa SE 14.5 km/h 30.6 km/h 60 % 0 mm
12:58 29.1 °C 20.3 °C 1010.7 hPa SE 14.5 km/h 30.6 km/h 59 % 0 mm
13:03 29.2 °C 20.4 °C 1010.7 hPa South 9.7 km/h 29 km/h 59 % 0 mm
13:08 29.2 °C 21.2 °C 1010.4 hPa SE 6.4 km/h 29 km/h 62 % 0 mm
13:13 29 °C 21.2 °C 1010.4 hPa SE 9.7 km/h 29 km/h 63 % 0 mm
13:18 28.8 °C 21.8 °C 1010.4 hPa South 11.3 km/h 29 km/h 66 % 0 mm
13:23 28.6 °C 21.6 °C 1010.4 hPa ENE 14.5 km/h 27.4 km/h 66 % 0 mm
13:28 28.7 °C 21.5 °C 1010 hPa SSE 12.9 km/h 27.4 km/h 65 % 0 mm
13:33 28.6 °C 21.4 °C 1010 hPa East 8 km/h 32.2 km/h 65 % 0 mm
13:38 28.9 °C 21.4 °C 1010 hPa SE 11.3 km/h 32.2 km/h 64 % 0 mm
13:43 28.9 °C 21.1 °C 1009.7 hPa ENE 17.7 km/h 32.2 km/h 63 % 0 mm
13:48 28.9 °C 21.1 °C 1009.7 hPa ENE 25.7 km/h 25.7 km/h 63 % 0 mm
13:53 28.9 °C 21.1 °C 1009.7 hPa ESE 12.9 km/h 27.4 km/h 63 % 0 mm
13:58 29.1 °C 21.1 °C 1009.7 hPa SE 11.3 km/h 27.4 km/h 62 % 0 mm
14:01 29 °C 20.7 °C 1009.7 hPa ESE 19.3 km/h 27.4 km/h 61 % 0 mm
14:06 29.1 °C 20.5 °C 1009.4 hPa ESE 16.1 km/h 29 km/h 60 % 0 mm
14:11 29.2 °C 21.7 °C 1009.4 hPa South 9.7 km/h 29 km/h 64 % 0 mm
14:16 29.1 °C 20 °C 1009.4 hPa SE 25.7 km/h 29 km/h 58 % 0 mm
14:21 28.8 °C 19.7 °C 1009.4 hPa SSE 17.7 km/h 29 km/h 58 % 0 mm
14:26 28.9 °C 20.4 °C 1009.4 hPa ESE 14.5 km/h 29 km/h 60 % 0 mm
14:31 29.1 °C 21.6 °C 1009 hPa ESE 8 km/h 29 km/h 64 % 0 mm
14:36 29.2 °C 21.4 °C 1009 hPa SSE 9.7 km/h 27.4 km/h 63 % 0 mm
14:41 29.3 °C 20.7 °C 1009 hPa SSE 11.3 km/h 27.4 km/h 60 % 0 mm
14:46 29.1 °C 20.8 °C 1008.7 hPa ESE 11.3 km/h 27.4 km/h 61 % 0 mm
14:51 29.2 °C 21.2 °C 1009 hPa SE 9.7 km/h 27.4 km/h 62 % 0 mm
14:56 29.3 °C 20.7 °C 1008.7 hPa ESE 11.3 km/h 27.4 km/h 60 % 0 mm
15:02 29.3 °C 21.5 °C 1008.7 hPa SE 11.3 km/h 29 km/h 63 % 0 mm
15:07 29.3 °C 21.5 °C 1008.4 hPa East 6.4 km/h 29 km/h 63 % 0 mm
15:12 29.3 °C 21.3 °C 1008.4 hPa ENE 14.5 km/h 29 km/h 62 % 0 mm
15:17 29.4 °C 21.4 °C 1008.4 hPa SSE 11.3 km/h 25.7 km/h 62 % 0 mm
15:22 29.1 °C 21.1 °C 1008.4 hPa SE 17.7 km/h 30.6 km/h 62 % 0 mm
15:27 28.8 °C 21.1 °C 1008 hPa SE 16.1 km/h 33.8 km/h 63 % 0 mm
15:32 29 °C 21 °C 1008 hPa SE 6.4 km/h 33.8 km/h 62 % 0 mm
15:37 29.1 °C 21.1 °C 1008 hPa ESE 6.4 km/h 33.8 km/h 62 % 0 mm
15:42 28.9 °C 21.4 °C 1008 hPa East 20.9 km/h 29 km/h 64 % 0 mm
15:47 28.9 °C 21.7 °C 1008 hPa ESE 14.5 km/h 32.2 km/h 65 % 0 mm
15:52 29 °C 21.2 °C 1007.7 hPa SE 9.7 km/h 32.2 km/h 63 % 0 mm
15:57 28.9 °C 21.4 °C 1007.7 hPa SE 9.7 km/h 32.2 km/h 64 % 0 mm
16:02 28.8 °C 21.6 °C 1007.7 hPa SE 6.4 km/h 24.1 km/h 65 % 0 mm
16:07 28.8 °C 21.6 °C 1007.7 hPa ESE 12.9 km/h 24.1 km/h 65 % 0 mm
16:12 28.7 °C 21.5 °C 1007.3 hPa South 4.8 km/h 30.6 km/h 65 % 0 mm
16:17 28.6 °C 21.9 °C 1007.3 hPa East 11.3 km/h 30.6 km/h 67 % 0 mm
16:22 28.4 °C 21.4 °C 1007.3 hPa SE 14.5 km/h 30.6 km/h 66 % 0 mm
16:27 28.2 °C 21.7 °C 1007.3 hPa SE 20.9 km/h 27.4 km/h 68 % 0 mm
16:32 27.9 °C 21.7 °C 1007.3 hPa East 8 km/h 27.4 km/h 69 % 0 mm
16:37 27.9 °C 21.9 °C 1007.3 hPa ENE 9.7 km/h 27.4 km/h 70 % 0 mm
16:42 27.9 °C 21.7 °C 1007.3 hPa ESE 19.3 km/h 25.7 km/h 69 % 0 mm
16:47 27.9 °C 21.9 °C 1007.3 hPa ESE 19.3 km/h 24.1 km/h 70 % 0 mm
16:52 27.9 °C 21.9 °C 1007.3 hPa SE 19.3 km/h 24.1 km/h 70 % 0 mm
16:57 27.7 °C 21.7 °C 1007 hPa SE 14.5 km/h 29 km/h 70 % 0 mm
17:02 27.6 °C 21.6 °C 1007 hPa East 20.9 km/h 29 km/h 70 % 0 mm
17:08 27.4 °C 21.7 °C 1007 hPa SE 16.1 km/h 29 km/h 71 % 0 mm
17:13 27.4 °C 21.9 °C 1007 hPa SE 17.7 km/h 27.4 km/h 72 % 0 mm
17:18 27.2 °C 21.5 °C 1007 hPa SE 11.3 km/h 25.7 km/h 71 % 0 mm
17:23 27.1 °C 21.6 °C 1007 hPa ESE 11.3 km/h 25.7 km/h 72 % 0 mm
17:28 27.2 °C 21.7 °C 1007 hPa SE 11.3 km/h 25.7 km/h 72 % 0 mm
17:33 27.2 °C 21.2 °C 1006.7 hPa SE 12.9 km/h 25.7 km/h 70 % 0 mm
17:38 27.3 °C 21.3 °C 1007 hPa South 9.7 km/h 27.4 km/h 70 % 0 mm
17:43 27.5 °C 21.1 °C 1007 hPa South 17.7 km/h 27.4 km/h 68 % 0 mm
17:48 27.4 °C 20.5 °C 1007 hPa ESE 9.7 km/h 27.4 km/h 66 % 0 mm
17:53 27.7 °C 21.3 °C 1007 hPa East 20.9 km/h 27.4 km/h 68 % 0 mm
17:58 27.3 °C 21.1 °C 1007.3 hPa SE 8 km/h 27.4 km/h 69 % 0 mm
18:03 27.1 °C 20.9 °C 1007 hPa East 22.5 km/h 27.4 km/h 69 % 0 mm
18:08 26.9 °C 20.7 °C 1007 hPa SE 17.7 km/h 22.5 km/h 69 % 0 mm
18:13 26.6 °C 20.7 °C 1007 hPa SE 12.9 km/h 32.2 km/h 70 % 0 mm
18:18 26.4 °C 20.5 °C 1007 hPa ESE 12.9 km/h 32.2 km/h 70 % 0 mm
18:23 26.4 °C 20.7 °C 1007 hPa ESE 19.3 km/h 32.2 km/h 71 % 0 mm
18:28 26.3 °C 20.8 °C 1007 hPa ESE 22.5 km/h 32.2 km/h 72 % 0 mm
18:33 26.2 °C 21 °C 1007 hPa East 19.3 km/h 30.6 km/h 73 % 0 mm
18:38 26.2 °C 21.2 °C 1007 hPa SE 8 km/h 29 km/h 74 % 0 mm
18:43 26.1 °C 21.1 °C 1007.3 hPa SE 12.9 km/h 29 km/h 74 % 0 mm
18:48 26 °C 21.2 °C 1007.3 hPa SE 24.1 km/h 27.4 km/h 75 % 0 mm
18:53 25.8 °C 21.2 °C 1007.3 hPa East 11.3 km/h 27.4 km/h 76 % 0 mm
18:58 25.6 °C 21.3 °C 1007.3 hPa SE 14.5 km/h 27.4 km/h 77 % 0 mm
19:03 25.5 °C 21.4 °C 1007 hPa ESE 14.5 km/h 27.4 km/h 78 % 0 mm
19:08 25.4 °C 21.5 °C 1007.3 hPa ESE 16.1 km/h 27.4 km/h 79 % 0 mm
19:13 25.3 °C 21.4 °C 1007.3 hPa ESE 20.9 km/h 27.4 km/h 79 % 0 mm
19:18 25.2 °C 21.3 °C 1007.3 hPa ESE 6.4 km/h 25.7 km/h 79 % 0 mm
19:23 25.2 °C 21.5 °C 1007.3 hPa ESE 12.9 km/h 25.7 km/h 80 % 0 mm
19:28 25.1 °C 21.6 °C 1007.3 hPa SE 14.5 km/h 24.1 km/h 81 % 0 mm
19:33 25 °C 21.5 °C 1007.3 hPa SE 12.9 km/h 27.4 km/h 81 % 0 mm
19:39 24.9 °C 21.6 °C 1007.3 hPa SE 12.9 km/h 27.4 km/h 82 % 0 mm
19:44 24.9 °C 21.6 °C 1007.3 hPa East 16.1 km/h 27.4 km/h 82 % 0 mm
19:49 24.9 °C 21.8 °C 1007.3 hPa SE 6.4 km/h 27.4 km/h 83 % 0 mm
19:54 24.8 °C 21.7 °C 1007.3 hPa SE 8 km/h 27.4 km/h 83 % 0 mm
19:59 24.8 °C 21.9 °C 1007.3 hPa SE 6.4 km/h 27.4 km/h 84 % 0 mm
20:04 24.7 °C 21.8 °C 1007.3 hPa SE 11.3 km/h 27.4 km/h 84 % 0 mm
20:09 24.7 °C 21.8 °C 1007.3 hPa ESE 16.1 km/h 22.5 km/h 84 % 0 mm
20:14 24.6 °C 21.7 °C 1007.3 hPa East 11.3 km/h 22.5 km/h 84 % 0 mm
20:19 24.6 °C 21.7 °C 1007.3 hPa ENE 6.4 km/h 22.5 km/h 84 % 0 mm
20:24 24.6 °C 21.9 °C 1007.3 hPa SSE 9.7 km/h 24.1 km/h 85 % 0 mm
20:29 24.5 °C 21.8 °C 1007.3 hPa SE 9.7 km/h 27.4 km/h 85 % 0 mm
20:34 24.5 °C 21.8 °C 1007.3 hPa East 22.5 km/h 27.4 km/h 85 % 0 mm
20:39 24.4 °C 21.9 °C 1007.3 hPa SSE 12.9 km/h 27.4 km/h 86 % 0 mm
20:44 24.4 °C 21.9 °C 1007.3 hPa East 14.5 km/h 24.1 km/h 86 % 0 mm
20:49 24.4 °C 21.9 °C 1007.3 hPa SE 9.7 km/h 24.1 km/h 86 % 0 mm
20:54 24.4 °C 21.7 °C 1007 hPa SE 12.9 km/h 24.1 km/h 85 % 0 mm
20:59 24.4 °C 21.7 °C 1007 hPa ESE 20.9 km/h 27.4 km/h 85 % 0 mm
21:04 24.5 °C 21.8 °C 1007 hPa ESE 9.7 km/h 29 km/h 85 % 0 mm
21:09 24.5 °C 21.6 °C 1007 hPa ESE 25.7 km/h 29 km/h 84 % 0 mm
21:14 24.6 °C 21.7 °C 1007.3 hPa SE 24.1 km/h 32.2 km/h 84 % 0 mm
21:19 24.6 °C 21.7 °C 1007.3 hPa SE 12.9 km/h 32.2 km/h 84 % 0 mm
21:24 24.6 °C 21.7 °C 1007.3 hPa East 9.7 km/h 33.8 km/h 84 % 0 mm
21:29 24.6 °C 21.7 °C 1007.3 hPa ESE 19.3 km/h 33.8 km/h 84 % 0 mm
21:34 24.6 °C 21.7 °C 1007.3 hPa SSE 11.3 km/h 33.8 km/h 84 % 0 mm
21:39 24.6 °C 21.7 °C 1007.3 hPa SE 27.4 km/h 29 km/h 84 % 0 mm
21:44 24.6 °C 21.5 °C 1007.3 hPa South 12.9 km/h 30.6 km/h 83 % 0 mm
21:49 24.6 °C 21.7 °C 1007.3 hPa SSE 6.4 km/h 30.6 km/h 84 % 0 mm
21:54 24.6 °C 21.7 °C 1007.3 hPa SE 11.3 km/h 30.6 km/h 84 % 0 mm
21:59 24.6 °C 21.7 °C 1007.3 hPa East 22.5 km/h 30.6 km/h 84 % 0 mm
22:04 24.6 °C 21.7 °C 1007.3 hPa SE 11.3 km/h 30.6 km/h 84 % 0 mm
22:09 24.6 °C 21.7 °C 1007.3 hPa SE 14.5 km/h 30.6 km/h 84 % 0 mm
22:14 24.6 °C 21.7 °C 1007.3 hPa SSE 14.5 km/h 27.4 km/h 84 % 0 mm
22:19 24.6 °C 21.7 °C 1007.3 hPa ESE 22.5 km/h 30.6 km/h 84 % 0 mm
22:24 24.6 °C 21.7 °C 1007 hPa South 17.7 km/h 30.6 km/h 84 % 0 mm
22:29 24.6 °C 21.5 °C 1007 hPa SSE 19.3 km/h 32.2 km/h 83 % 0 mm
22:35 24.6 °C 21.5 °C 1007.3 hPa ESE 20.9 km/h 33.8 km/h 83 % 0 mm
22:40 24.6 °C 21.5 °C 1007 hPa ESE 12.9 km/h 33.8 km/h 83 % 0 mm
22:45 24.6 °C 21.5 °C 1007 hPa SE 17.7 km/h 33.8 km/h 83 % 0 mm
22:50 24.6 °C 21.5 °C 1007 hPa SE 12.9 km/h 30.6 km/h 83 % 0 mm
22:55 24.5 °C 21.4 °C 1006.7 hPa SE 24.1 km/h 30.6 km/h 83 % 0 mm
23:00 24.4 °C 21.3 °C 1006.7 hPa ESE 20.9 km/h 27.4 km/h 83 % 0 mm
23:05 24.5 °C 21.4 °C 1006.7 hPa SE 12.9 km/h 29 km/h 83 % 0 mm
23:10 24.5 °C 21.4 °C 1006.7 hPa South 12.9 km/h 32.2 km/h 83 % 0 mm
23:15 24.5 °C 21.4 °C 1006.7 hPa East 16.1 km/h 37 km/h 83 % 0 mm
23:20 24.5 °C 21.4 °C 1006.7 hPa SE 17.7 km/h 37 km/h 83 % 0 mm
23:25 24.5 °C 21.2 °C 1006.7 hPa SE 16.1 km/h 37 km/h 82 % 0 mm
23:30 24.5 °C 21.2 °C 1006.7 hPa SE 40.2 km/h 40.2 km/h 82 % 0 mm
23:35 24.5 °C 21.2 °C 1006.7 hPa SSE 20.9 km/h 40.2 km/h 82 % 0 mm
23:40 24.4 °C 21.1 °C 1006.7 hPa ESE 19.3 km/h 40.2 km/h 82 % 0 mm
23:45 24.4 °C 21.1 °C 1006.7 hPa SSE 16.1 km/h 40.2 km/h 82 % 0 mm
23:50 24.4 °C 21.1 °C 1006.7 hPa SE 20.9 km/h 29 km/h 82 % 0 mm
23:55 24.3 °C 21 °C 1006.7 hPa SE 12.9 km/h 30.6 km/h 82 % 0 mm
Spring, Texas: Villages of Bridgestone
Compliments of Weather Underground - 2.75 mb

Script developed by  Jim McMurry - jmcmurry@mwt.net Adapted for the template by  Wim van der Kuil - Leuven-Template.eu

You find our weather info also at:

UK Metoffice

WeatherCloud

Weather Underground

Mid-South Weather Network

AWEKAS

Citizen Weather Observer Program (CWOP)

HAMweather, WeatherForYou, PWS Weather

Equipment we use:

Weather-station
Davis Vantage Vue

Weather-program
Meteohub

Weather-server
Debian 7.9 x86 (Guest)

Provider
DreamHost

Davis Vantage Vue

Meteohub

Debian 7.9 x86 (Guest)

DreamHost